CheckWX is a tool to help pilots better visualize weather data.  It is not intended as a substitute for an official pre-flight weather briefing.

17:18:55 UTC

KEET METAR
Shelby County Airport
Alabaster, Alabama, USA
Current

26 mins ago

KEET 211653Z AUTO 24003KT 10SM FEW026 FEW036 28/21 A3007 RMK AO2 SLP176 T02830211
Observed
Jul-21 @ 16:53 UTC
Wind
  • 240° at 3 KTS
Visibility
10 SM
Flight Rules
VFR
Cloud Levels
  • Few at 2,600' AGL
  • Few at 3,600' AGL
Temperature
28°C / 82°F
Dewpoint
21°C / 70°F
Heat Index
30°C / 86°F
Humidity
66%
Altimeter
30.07" Hg
Pressure
1018.32 hPa
Previous

54 mins ago

KEET 211625Z AUTO VRB03KT 10SM SCT024 BKN037 BKN075 28/22 A3007 RMK AO2 T02780217
Observed
Jul-21 @ 16:25 UTC
Wind
  • Variable at 3 KTS
Visibility
10 SM
Flight Rules
VFR
Cloud Levels
  • Scattered at 2,400' AGL
  • Broken at 3,700' AGL
  • Broken at 7,500' AGL
Temperature
28°C / 82°F
Dewpoint
22°C / 72°F
Heat Index
30°C / 86°F
Humidity
70%
Altimeter
30.07" Hg
Pressure
1018.32 hPa
Previous

1 hour ago

KEET 211553Z AUTO 20007KT 10SM SCT020 BKN025 BKN075 27/22 A3008 RMK AO2 SLP178 T02720222
Observed
Jul-21 @ 15:53 UTC
Wind
  • 200° at 7 KTS
Visibility
10 SM
Flight Rules
MVFR
Cloud Levels
  • Scattered at 2,000' AGL
  • Broken at 2,500' AGL
  • Broken at 7,500' AGL
Temperature
27°C / 81°F
Dewpoint
22°C / 72°F
Heat Index
29°C / 85°F
Humidity
74%
Altimeter
30.08" Hg
Pressure
1018.62 hPa